Time;durP1;ratioP1;P1;durP2;ratioP2;P2;SDS_P1;SDS_P2;PMS_P1;PMS_P2;Temp;Humidity;BMP_temperature;BMP_pressure;BME280_temperature;BME280_humidity;BME280_pressure;Samples;Min_cycle;Max_cycle;Signal;HPM_P1;HPM_P2
2022/04/18 19:28:06;;;;;;;4.58;2.62;;;;;;;;;;1797856;78;25641;-72
2022/04/18 19:30:32;;;;;;;4.90;2.70;;;;;;;;;;1785648;79;25569;-72
2022/04/18 19:32:58;;;;;;;6.33;2.83;;;;;;;;;;1808867;78;34674;-70
2022/04/18 19:35:24;;;;;;;5.28;3.25;;;;;;;;;;1808894;79;25458;-71
2022/04/18 19:37:50;;;;;;;5.45;3.10;;;;;;;;;;1807206;79;27461;-70
2022/04/18 19:40:18;;;;;;;4.62;3.00;;;;;;;;;;1815688;77;33277;-69
2022/04/18 19:42:44;;;;;;;5.70;3.40;;;;;;;;;;1805423;78;25680;-75
2022/04/18 19:45:11;;;;;;;5.80;3.37;;;;;;;;;;1796435;77;26534;-72
2022/04/18 19:47:37;;;;;;;6.62;3.02;;;;;;;;;;1834525;77;25633;-72
2022/04/18 19:50:03;;;;;;;4.80;2.95;;;;;;;;;;1841841;77;27451;-73
2022/04/18 19:52:29;;;;;;;8.15;3.00;;;;;;;;;;1841569;77;25767;-70
2022/04/18 19:54:55;;;;;;;5.83;3.00;;;;;;;;;;1835503;77;30151;-70
2022/04/18 19:57:22;;;;;;;6.03;3.08;;;;;;;;;;1800704;79;25786;-69
2022/04/18 19:59:48;;;;;;;6.25;3.08;;;;;;;;;;1800787;79;26277;-71
2022/04/18 20:02:14;;;;;;;7.60;3.10;;;;;;;;;;1800866;79;27454;-70
2022/04/18 20:04:41;;;;;;;3.98;2.83;;;;;;;;;;1801000;79;33059;-70
2022/04/18 20:07:07;;;;;;;6.12;3.45;;;;;;;;;;1800658;79;25709;-71
2022/04/18 20:09:33;;;;;;;4.85;2.83;;;;;;;;;;1800452;79;25669;-70
2022/04/18 20:11:59;;;;;;;7.10;3.72;;;;;;;;;;1800228;79;32186;-70
2022/04/18 20:14:25;;;;;;;7.10;3.25;;;;;;;;;;1800589;79;28074;-70
2022/04/18 20:16:52;;;;;;;4.17;2.98;;;;;;;;;;1800906;79;25712;-69
2022/04/18 20:19:20;;;;;;;4.40;2.92;;;;;;;;;;1800840;79;26233;-70
2022/04/18 20:21:46;;;;;;;5.83;4.03;;;;;;;;;;1800713;79;25760;-71
2022/04/18 20:24:15;;;;;;;8.35;3.08;;;;;;;;;;1800912;79;25547;-71
2022/04/18 20:26:41;;;;;;;;;;;;;;;;;;1803552;79;28068;-70
2022/04/18 20:29:18;;;;;;;6.80;3.33;;;;;;;;;;1796519;79;33537;-69
2022/04/18 20:31:45;;;;;;;6.67;3.30;;;;;;;;;;1781731;78;25774;-69
2022/04/18 20:34:10;;;;;;;5.72;3.35;;;;;;;;;;1779062;79;25657;-69
2022/04/18 20:36:36;;;;;;;5.62;3.20;;;;;;;;;;1778931;79;25742;-69
2022/04/18 20:39:02;;;;;;;7.65;3.30;;;;;;;;;;1779026;80;26955;-69
2022/04/18 20:41:30;;;;;;;5.17;3.60;;;;;;;;;;1778973;80;33572;-69
2022/04/18 20:43:56;;;;;;;8.75;3.67;;;;;;;;;;1778900;80;25404;-69
2022/04/18 20:46:23;;;;;;;6.85;4.35;;;;;;;;;;1778996;80;25687;-69
2022/04/18 20:48:50;;;;;;;6.28;3.58;;;;;;;;;;1779117;79;25637;-70
2022/04/18 20:51:17;;;;;;;6.00;3.90;;;;;;;;;;1778909;80;27400;-70
2022/04/18 20:59:15;;;;;;;5.58;3.22;;;;;;;;;;1778752;80;25702;-71
2022/04/18 21:01:41;;;;;;;6.78;3.83;;;;;;;;;;1779198;79;25421;-69
2022/04/18 21:04:07;;;;;;;5.70;3.55;;;;;;;;;;1779077;79;27346;-69
2022/04/18 21:06:33;;;;;;;6.78;4.12;;;;;;;;;;1778722;80;25665;-70
2022/04/18 21:09:01;;;;;;;11.33;4.50;;;;;;;;;;1779046;79;25650;-70
2022/04/18 21:11:27;;;;;;;22.48;7.55;;;;;;;;;;1779090;79;25600;-69
2022/04/18 21:13:53;;;;;;;17.90;7.83;;;;;;;;;;1778856;80;25599;-69
2022/04/18 21:16:19;;;;;;;8.25;4.62;;;;;;;;;;1779043;80;27428;-69
2022/04/18 21:18:45;;;;;;;9.15;3.70;;;;;;;;;;1779095;79;33488;-70
2022/04/18 21:21:11;;;;;;;5.80;3.37;;;;;;;;;;1778889;79;29603;-69
2022/04/18 21:23:39;;;;;;;8.05;4.03;;;;;;;;;;1779173;80;35131;-70
2022/04/18 21:26:05;;;;;;;9.68;4.00;;;;;;;;;;1779085;80;25666;-69
2022/04/18 21:28:33;;;;;;;9.53;4.35;;;;;;;;;;1778914;80;27315;-70
2022/04/18 21:30:59;;;;;;;5.87;3.62;;;;;;;;;;1773379;79;25641;-70
2022/04/18 21:33:27;;;;;;;7.35;3.70;;;;;;;;;;1765405;80;25646;-72
2022/04/18 21:35:58;;;;;;;9.58;4.33;;;;;;;;;;1765241;81;25679;-72
2022/04/18 21:38:21;;;;;;;11.63;4.12;;;;;;;;;;1765499;79;25465;-72
2022/04/18 21:40:47;;;;;;;9.05;4.35;;;;;;;;;;1765456;81;27950;-72
2022/04/18 21:43:15;;;;;;;9.63;4.62;;;;;;;;;;1765082;81;33496;-73
2022/04/18 21:45:43;;;;;;;10.82;4.28;;;;;;;;;;1765345;81;25536;-73
2022/04/18 21:48:09;;;;;;;7.77;4.07;;;;;;;;;;1765560;81;25686;-72
2022/04/18 21:50:36;;;;;;;9.05;4.37;;;;;;;;;;1765161;81;32245;-71
2022/04/18 21:53:03;;;;;;;7.60;4.53;;;;;;;;;;1765590;81;28323;-74
2022/04/18 21:55:33;;;;;;;10.40;4.50;;;;;;;;;;1765633;80;25688;-71
2022/04/18 21:57:59;;;;;;;;;;;;;;;;;;1768265;80;25861;-72
2022/04/18 22:00:28;;;;;;;9.33;4.78;;;;;;;;;;1765292;80;34906;-73
2022/04/18 22:02:54;;;;;;;9.38;4.62;;;;;;;;;;1765630;80;25554;-73
2022/04/18 22:05:21;;;;;;;8.05;4.35;;;;;;;;;;1765212;81;27384;-73
2022/04/18 22:07:49;;;;;;;9.80;5.47;;;;;;;;;;1765378;80;25624;-72
2022/04/18 22:10:15;;;;;;;10.63;5.53;;;;;;;;;;1765323;80;25545;-73
2022/04/18 22:12:42;;;;;;;9.70;5.03;;;;;;;;;;1765229;80;26342;-72
2022/04/18 22:15:10;;;;;;;15.48;5.62;;;;;;;;;;1765313;81;25486;-73
2022/04/18 22:17:37;;;;;;;9.88;4.83;;;;;;;;;;1765278;81;27348;-73
2022/04/18 22:25:33;;;;;;;9.65;4.55;;;;;;;;;;1735058;82;25662;-73
2022/04/18 22:28:01;;;;;;;8.43;4.42;;;;;;;;;;1735052;82;25433;-72
2022/04/18 22:30:27;;;;;;;10.88;4.85;;;;;;;;;;1736817;80;29474;-72
2022/04/18 22:32:53;;;;;;;9.70;5.00;;;;;;;;;;1769232;81;25612;-72
2022/04/18 22:35:19;;;;;;;8.35;4.45;;;;;;;;;;1768996;81;25395;-72
2022/04/18 22:37:45;;;;;;;9.38;5.40;;;;;;;;;;1769194;81;34832;-72
2022/04/18 22:40:11;;;;;;;9.88;4.58;;;;;;;;;;1769186;81;32247;-72
2022/04/18 22:42:37;;;;;;;8.58;4.20;;;;;;;;;;1768990;80;27354;-72
2022/04/18 22:45:04;;;;;;;10.63;4.85;;;;;;;;;;1769118;80;33125;-72
2022/04/18 22:47:30;;;;;;;9.63;4.78;;;;;;;;;;1769056;81;25679;-71
2022/04/18 22:49:56;;;;;;;9.33;4.33;;;;;;;;;;1769011;81;35161;-72
2022/04/18 22:52:22;;;;;;;9.93;4.62;;;;;;;;;;1769221;81;32666;-71
2022/04/18 22:54:49;;;;;;;10.68;4.78;;;;;;;;;;1769359;81;27327;-73
2022/04/18 22:57:15;;;;;;;9.33;4.78;;;;;;;;;;1774293;80;25768;-73
2022/04/18 22:59:41;;;;;;;8.45;4.70;;;;;;;;;;1769308;81;25618;-72
2022/04/18 23:02:12;;;;;;;11.30;5.10;;;;;;;;;;1769373;81;25627;-72
2022/04/18 23:04:41;;;;;;;10.40;5.10;;;;;;;;;;1769025;81;25601;-72
2022/04/18 23:07:07;;;;;;;9.80;4.50;;;;;;;;;;1769105;80;27378;-71
2022/04/18 23:09:33;;;;;;;6.17;3.87;;;;;;;;;;1769122;80;25557;-72
2022/04/18 23:12:00;;;;;;;6.85;4.30;;;;;;;;;;1769189;80;25639;-72
2022/04/18 23:14:26;;;;;;;9.70;4.58;;;;;;;;;;1769267;80;25685;-71
2022/04/18 23:16:52;;;;;;;7.75;4.97;;;;;;;;;;1769347;81;25766;-73
2022/04/18 23:19:18;;;;;;;9.83;5.47;;;;;;;;;;1768679;81;27351;-74
2022/04/18 23:21:45;;;;;;;9.65;4.78;;;;;;;;;;1769153;80;25655;-71
2022/04/18 23:24:13;;;;;;;10.08;5.72;;;;;;;;;;1769097;80;25705;-72
2022/04/18 23:26:39;;;;;;;8.70;5.62;;;;;;;;;;1768973;81;25682;-72
2022/04/18 23:29:07;;;;;;;8.85;5.55;;;;;;;;;;1769293;81;32537;-73
2022/04/18 23:31:33;;;;;;;10.03;4.95;;;;;;;;;;1769203;80;28257;-73
2022/04/18 23:33:59;;;;;;;6.72;4.87;;;;;;;;;;1769210;81;33442;-73
2022/04/18 23:36:26;;;;;;;8.50;5.22;;;;;;;;;;1769405;81;29823;-72
2022/04/18 23:38:52;;;;;;;8.00;4.85;;;;;;;;;;1769473;81;25656;-74
2022/04/18 23:44:09;;;;;;;12.23;5.67;;;;;;;;;;1769408;81;27358;-72
2022/04/18 23:46:30;;;;;;;7.78;5.42;;;;;;;;;;1726690;81;25554;-71
2022/04/18 23:48:57;;;;;;;8.50;5.40;;;;;;;;;;1727333;83;30083;-71
2022/04/18 23:51:24;;;;;;;10.65;5.03;;;;;;;;;;1727417;83;25555;-71
2022/04/18 23:53:51;;;;;;;9.28;5.25;;;;;;;;;;1727417;83;25625;-73
2022/04/18 23:56:17;;;;;;;8.90;4.78;;;;;;;;;;1727216;83;27414;-72
2022/04/18 23:58:44;;;;;;;10.75;5.30;;;;;;;;;;1727023;83;33559;-72
